createdAt,value
2023-05-12T00:00:57.205Z,91.46
2023-05-12T00:03:25.887Z,91.70
2023-05-12T00:05:53.973Z,91.82
2023-05-12T00:08:21.384Z,91.97
2023-05-12T00:10:49.201Z,91.17
2023-05-12T00:13:17.117Z,91.23
2023-05-12T00:15:44.972Z,90.99
2023-05-12T00:18:12.734Z,90.41
2023-05-12T00:20:40.653Z,91.04
2023-05-12T00:23:08.276Z,90.77
2023-05-12T00:25:35.866Z,91.42
2023-05-12T00:28:03.152Z,91.30
2023-05-12T00:30:30.780Z,90.57
2023-05-12T00:32:58.913Z,90.26
2023-05-12T00:35:26.616Z,89.45
2023-05-12T00:37:54.052Z,90.61
2023-05-12T00:40:22.090Z,89.14
2023-05-12T00:42:50.013Z,89.37
2023-05-12T00:45:17.902Z,89.34
2023-05-12T00:47:46.647Z,89.59
2023-05-12T00:50:15.391Z,90.00
2023-05-12T00:52:42.928Z,89.65
2023-05-12T00:55:10.783Z,90.33
2023-05-12T00:57:38.271Z,90.53
2023-05-12T01:00:09.223Z,89.59
2023-05-12T01:02:58.755Z,90.17
2023-05-12T01:05:54.611Z,89.83
2023-05-12T01:08:23.576Z,89.43
2023-05-12T01:10:52.354Z,89.52
2023-05-12T01:13:20.164Z,89.77
2023-05-12T01:15:50.710Z,89.34
2023-05-12T01:18:20.562Z,88.91
2023-05-12T01:20:50.961Z,88.32
2023-05-12T01:23:21.749Z,88.76
2023-05-12T01:25:50.477Z,88.89
2023-05-12T01:28:18.947Z,88.57
2023-05-12T01:30:48.208Z,88.25
2023-05-12T01:33:15.655Z,88.59
2023-05-12T01:35:43.387Z,88.34
2023-05-12T01:38:10.947Z,88.10
2023-05-12T01:40:41.661Z,88.66
2023-05-12T01:43:09.488Z,87.74
2023-05-12T01:45:37.687Z,88.54
2023-05-12T01:48:05.482Z,88.36
2023-05-12T01:50:33.147Z,88.40
2023-05-12T01:53:01.873Z,88.50
2023-05-12T01:55:31.375Z,88.08
2023-05-12T01:57:58.624Z,88.38
2023-05-12T02:00:27.819Z,88.83
2023-05-12T02:02:57.934Z,88.60
2023-05-12T02:05:26.034Z,88.54
2023-05-12T02:07:53.768Z,89.05
2023-05-12T02:10:22.363Z,88.69
2023-05-12T02:12:49.942Z,88.74
2023-05-12T02:15:17.752Z,88.55
2023-05-12T02:17:46.914Z,89.28
2023-05-12T02:20:16.777Z,88.86
2023-05-12T02:22:44.279Z,88.99
2023-05-12T02:25:11.859Z,89.41
2023-05-12T02:27:39.312Z,89.71
2023-05-12T02:30:08.211Z,89.63
2023-05-12T02:32:36.339Z,89.22
2023-05-12T02:35:07.333Z,89.45
2023-05-12T02:37:36.395Z,89.54
2023-05-12T02:40:09.195Z,89.21
2023-05-12T02:42:38.565Z,89.24
2023-05-12T02:45:07.145Z,89.58
2023-05-12T02:47:34.498Z,88.34
2023-05-12T02:50:04.077Z,89.20
2023-05-12T02:52:32.341Z,88.73
2023-05-12T02:54:59.964Z,87.97
2023-05-12T02:57:33.059Z,87.58
2023-05-12T03:00:02.071Z,87.49
2023-05-12T03:02:36.336Z,86.90
2023-05-12T03:05:04.975Z,87.21
2023-05-12T03:07:32.543Z,86.61
2023-05-12T03:10:01.752Z,86.19
2023-05-12T03:12:29.861Z,86.81
2023-05-12T03:14:58.380Z,86.49
2023-05-12T03:17:27.148Z,86.29
2023-05-12T03:19:54.859Z,86.41
2023-05-12T03:22:22.354Z,86.01
2023-05-12T03:24:50.063Z,86.23
2023-05-12T03:27:17.456Z,85.91
2023-05-12T03:29:45.070Z,85.81
2023-05-12T03:32:13.260Z,85.34
2023-05-12T03:34:40.937Z,85.02
2023-05-12T03:37:08.984Z,85.38
2023-05-12T03:39:36.546Z,85.64
2023-05-12T03:42:04.016Z,85.39
2023-05-12T03:44:31.681Z,85.05
2023-05-12T03:46:59.131Z,84.95
2023-05-12T03:49:27.358Z,85.08
2023-05-12T03:51:54.979Z,84.65
2023-05-12T03:54:22.648Z,84.99
2023-05-12T03:56:50.718Z,85.20
2023-05-12T03:59:18.421Z,84.99
2023-05-12T04:01:46.068Z,85.47
2023-05-12T04:04:13.997Z,85.81
2023-05-12T04:06:41.325Z,86.04
2023-05-12T04:09:09.056Z,86.22
2023-05-12T04:11:37.242Z,85.68
2023-05-12T04:14:04.860Z,86.18
2023-05-12T04:16:32.267Z,86.13
2023-05-12T04:18:59.971Z,86.84
2023-05-12T04:21:27.702Z,87.65
2023-05-12T04:23:55.874Z,87.95
2023-05-12T04:26:27.191Z,87.52
2023-05-12T04:28:55.467Z,88.10
2023-05-12T04:31:23.311Z,87.85
2023-05-12T04:33:52.068Z,88.12
2023-05-12T04:36:19.411Z,88.49
2023-05-12T04:38:49.753Z,88.69
2023-05-12T04:41:17.248Z,88.71
2023-05-12T04:46:16.198Z,89.61
2023-05-12T04:48:44.651Z,89.83
2023-05-12T04:51:11.976Z,90.16
2023-05-12T04:53:39.700Z,90.70
2023-05-12T04:56:07.365Z,90.32
2023-05-12T04:58:38.579Z,91.26
2023-05-12T05:01:07.103Z,90.80
2023-05-12T05:03:35.669Z,91.46
2023-05-12T05:06:03.073Z,91.51
2023-05-12T05:08:30.698Z,92.04
2023-05-12T05:10:58.087Z,92.27
2023-05-12T05:13:27.251Z,92.39
2023-05-12T05:15:55.336Z,92.92
2023-05-12T05:18:24.793Z,92.84
2023-05-12T05:23:24.118Z,92.49
2023-05-12T05:25:51.684Z,92.55
2023-05-12T05:28:19.356Z,91.83
2023-05-12T05:30:47.325Z,92.14
2023-05-12T05:33:15.656Z,91.41
2023-05-12T05:35:43.204Z,91.89
2023-05-12T05:38:13.176Z,91.66
2023-05-12T05:40:52.069Z,90.64
2023-05-12T05:43:21.419Z,90.62
2023-05-12T05:45:51.912Z,91.13
2023-05-12T05:48:22.482Z,90.86
2023-05-12T05:50:51.770Z,91.30
2023-05-12T05:53:21.114Z,90.43
2023-05-12T05:55:51.409Z,91.76
2023-05-12T05:58:19.002Z,91.92
2023-05-12T06:00:47.447Z,92.73
2023-05-12T06:03:15.250Z,92.64
2023-05-12T06:05:44.682Z,92.99
2023-05-12T06:08:13.693Z,93.70
2023-05-12T06:10:41.463Z,94.23
2023-05-12T06:13:09.175Z,93.43
2023-05-12T06:15:36.718Z,92.29
2023-05-12T06:18:04.597Z,90.70
2023-05-12T06:20:35.145Z,89.58
2023-05-12T06:23:02.992Z,89.44
2023-05-12T06:25:30.303Z,89.31
2023-05-12T06:27:57.847Z,88.56
2023-05-12T06:30:25.201Z,88.28
2023-05-12T06:32:56.162Z,87.62
2023-05-12T06:35:23.640Z,87.31
2023-05-12T06:37:51.549Z,86.65
2023-05-12T06:40:19.313Z,87.08
2023-05-12T06:42:48.242Z,86.99
2023-05-12T06:45:20.437Z,86.97
2023-05-12T06:47:48.532Z,86.93
2023-05-12T06:50:17.222Z,86.86
2023-05-12T06:52:45.222Z,87.56
2023-05-12T06:55:12.666Z,89.15
2023-05-12T06:57:40.306Z,91.68
2023-05-12T07:00:10.901Z,94.26
2023-05-12T07:02:38.954Z,96.66
2023-05-12T07:05:06.573Z,96.64
2023-05-12T07:07:35.952Z,100.00
2023-05-12T07:10:03.596Z,100.00
2023-05-12T07:12:32.410Z,100.00
2023-05-12T07:14:59.951Z,100.00
2023-05-12T07:17:29.024Z,100.00
2023-05-12T07:19:56.459Z,100.00
2023-05-12T07:22:24.158Z,100.00
2023-05-12T07:24:51.564Z,100.00
2023-05-12T07:27:19.421Z,100.00
2023-05-12T07:29:47.155Z,100.00
2023-05-12T07:32:14.711Z,100.00
2023-05-12T07:34:42.295Z,100.00
2023-05-12T07:37:09.957Z,100.00
2023-05-12T07:39:37.357Z,100.00
2023-05-12T07:42:07.382Z,100.00
2023-05-12T07:44:35.119Z,100.00
2023-05-12T07:47:02.712Z,100.00
2023-05-12T07:49:30.058Z,100.00
2023-05-12T07:51:57.717Z,100.00
2023-05-12T07:54:25.128Z,100.00
2023-05-12T07:56:52.789Z,100.00
2023-05-12T07:59:20.117Z,100.00
2023-05-12T08:01:49.985Z,100.00
2023-05-12T08:04:17.569Z,100.00
2023-05-12T08:06:45.364Z,100.00
2023-05-12T08:09:12.817Z,100.00
2023-05-12T08:11:40.530Z,100.00
2023-05-12T08:14:07.827Z,100.00
2023-05-12T08:16:35.463Z,100.00
2023-05-12T08:19:02.867Z,100.00
2023-05-12T08:21:32.893Z,100.00
2023-05-12T08:24:00.485Z,100.00
2023-05-12T08:26:28.644Z,100.00
2023-05-12T08:28:56.669Z,100.00
2023-05-12T08:31:24.552Z,100.00
2023-05-12T08:34:02.716Z,100.00
2023-05-12T08:36:37.656Z,100.00
2023-05-12T08:39:05.208Z,100.00
2023-05-12T08:41:45.384Z,100.00
2023-05-12T08:44:13.398Z,100.00
2023-05-12T08:46:42.131Z,100.00
2023-05-12T08:49:17.117Z,100.00
2023-05-12T08:51:54.469Z,100.00
2023-05-12T08:54:26.953Z,100.00
2023-05-12T08:59:25.797Z,100.00
2023-05-12T09:01:55.390Z,100.00
2023-05-12T09:04:23.268Z,100.00
2023-05-12T09:06:53.645Z,100.00
2023-05-12T09:09:23.396Z,100.00
2023-05-12T09:11:56.642Z,100.00
2023-05-12T09:14:26.063Z,100.00
2023-05-12T09:17:00.204Z,100.00
2023-05-12T09:19:28.447Z,100.00
2023-05-12T09:21:56.998Z,100.00
2023-05-12T09:24:38.817Z,100.00
2023-05-12T09:27:07.497Z,100.00
2023-05-12T09:29:42.358Z,100.00
2023-05-12T09:32:15.827Z,100.00
2023-05-12T09:34:43.560Z,100.00
2023-05-12T09:37:15.307Z,100.00
2023-05-12T09:39:44.388Z,100.00
2023-05-12T09:42:15.988Z,100.00
2023-05-12T09:44:43.589Z,100.00
2023-05-12T09:47:11.319Z,100.00
2023-05-12T09:49:38.609Z,100.00
2023-05-12T09:52:06.464Z,100.00
2023-05-12T09:54:34.663Z,100.00
2023-05-12T09:57:08.790Z,100.00
2023-05-12T09:59:39.994Z,100.00
2023-05-12T10:02:09.910Z,100.00
2023-05-12T10:04:51.039Z,100.00
2023-05-12T10:07:29.956Z,100.00
2023-05-12T10:10:01.564Z,100.00
2023-05-12T10:12:29.733Z,98.12
2023-05-12T10:15:03.541Z,98.47
2023-05-12T10:17:32.513Z,97.97
2023-05-12T10:20:06.836Z,98.73
2023-05-12T10:22:38.768Z,96.50
2023-05-12T10:25:12.586Z,95.91
2023-05-12T10:27:52.528Z,95.38
2023-05-12T10:30:24.302Z,92.97
2023-05-12T10:32:57.586Z,93.90
2023-05-12T10:35:34.191Z,92.79
2023-05-12T10:38:10.086Z,91.96
2023-05-12T10:41:15.345Z,91.40
2023-05-12T10:43:49.848Z,91.46
2023-05-12T10:46:21.544Z,88.25
2023-05-12T10:49:16.002Z,90.22
2023-05-12T10:51:43.445Z,90.36
2023-05-12T10:54:18.819Z,90.22
2023-05-12T10:56:46.681Z,86.43
2023-05-12T10:59:19.060Z,86.72
2023-05-12T11:02:03.267Z,87.14
2023-05-12T11:04:41.462Z,87.91
2023-05-12T11:07:12.201Z,88.30
2023-05-12T11:09:50.596Z,88.25
2023-05-12T11:12:26.920Z,88.25
2023-05-12T11:14:54.786Z,88.46
2023-05-12T11:17:22.280Z,89.32
2023-05-12T11:19:50.918Z,89.16
2023-05-12T11:22:25.761Z,88.44
2023-05-12T11:24:54.183Z,87.28
2023-05-12T11:27:23.542Z,87.82
2023-05-12T11:30:07.479Z,86.42
2023-05-12T11:32:34.894Z,86.53
2023-05-12T11:35:17.620Z,85.63
2023-05-12T11:37:47.569Z,85.25
2023-05-12T11:40:23.388Z,84.25
2023-05-12T11:42:58.417Z,84.37
2023-05-12T11:45:32.468Z,84.34
2023-05-12T11:48:11.920Z,83.61
2023-05-12T11:50:48.780Z,83.55
2023-05-12T11:53:19.496Z,84.19
2023-05-12T11:55:56.589Z,82.50
2023-05-12T11:58:30.871Z,82.36
2023-05-12T12:01:12.145Z,82.05
2023-05-12T12:03:57.053Z,82.79
2023-05-12T12:06:24.788Z,81.76
2023-05-12T12:09:02.798Z,81.12
2023-05-12T12:11:31.599Z,83.15
2023-05-12T12:13:58.975Z,82.55
2023-05-12T12:16:28.274Z,83.15
2023-05-12T12:18:56.800Z,83.69
2023-05-12T12:21:25.666Z,83.86
2023-05-12T12:23:55.200Z,84.90
2023-05-12T12:26:23.399Z,84.77
2023-05-12T12:28:50.792Z,84.39
2023-05-12T12:31:19.000Z,85.63
2023-05-12T12:33:46.414Z,84.78
2023-05-12T12:36:14.091Z,86.96
2023-05-12T12:38:41.397Z,85.84
2023-05-12T12:41:09.125Z,85.13
2023-05-12T12:43:36.526Z,84.94
2023-05-12T12:46:04.381Z,85.09
2023-05-12T12:48:32.441Z,85.68
2023-05-12T12:51:01.430Z,85.94
2023-05-12T12:53:29.090Z,86.70
2023-05-12T12:55:56.735Z,84.95
2023-05-12T12:58:24.160Z,84.83
2023-05-12T13:00:51.911Z,85.08
2023-05-12T13:03:20.496Z,85.83
2023-05-12T13:05:48.361Z,86.52
2023-05-12T13:08:17.559Z,86.49
2023-05-12T13:10:46.602Z,87.69
2023-05-12T13:13:20.015Z,87.35
2023-05-12T13:15:48.851Z,87.64
2023-05-12T13:18:16.223Z,88.71
2023-05-12T13:20:44.062Z,88.84
2023-05-12T13:23:11.563Z,88.39
2023-05-12T13:25:39.778Z,88.84
2023-05-12T13:28:07.097Z,89.86
2023-05-12T13:30:35.056Z,90.48
2023-05-12T13:33:05.043Z,90.80
2023-05-12T13:35:33.752Z,90.01
2023-05-12T13:38:01.254Z,89.66
2023-05-12T13:40:28.947Z,89.94
2023-05-12T13:42:56.654Z,89.63
2023-05-12T13:45:24.619Z,90.78
2023-05-12T13:47:52.222Z,91.30
2023-05-12T13:50:20.670Z,90.59
2023-05-12T13:52:48.035Z,90.44
2023-05-12T13:55:20.982Z,91.10
2023-05-12T13:57:49.606Z,90.43
2023-05-12T14:00:20.692Z,90.53
2023-05-12T14:02:48.333Z,91.69
2023-05-12T14:05:16.214Z,92.59
2023-05-12T14:07:43.542Z,92.40
2023-05-12T14:10:11.478Z,93.71
2023-05-12T14:12:38.887Z,94.95
2023-05-12T14:15:22.032Z,95.27
2023-05-12T14:17:54.602Z,96.12
2023-05-12T14:20:22.476Z,97.38
2023-05-12T14:22:49.866Z,97.75
2023-05-12T14:25:17.650Z,99.79
2023-05-12T14:27:45.484Z,100.00
2023-05-12T14:30:13.609Z,100.00
2023-05-12T14:32:40.893Z,100.00
2023-05-12T14:35:11.295Z,100.00
2023-05-12T14:37:38.617Z,100.00
2023-05-12T14:40:09.180Z,100.00
2023-05-12T14:42:36.660Z,100.00
2023-05-12T14:45:05.215Z,100.00
2023-05-12T14:47:32.709Z,100.00
2023-05-12T14:50:00.311Z,100.00
2023-05-12T14:52:27.666Z,100.00
2023-05-12T14:54:56.023Z,100.00
2023-05-12T14:57:23.332Z,100.00
2023-05-12T14:59:54.460Z,100.00
2023-05-12T15:02:21.733Z,100.00
2023-05-12T15:04:49.675Z,100.00
2023-05-12T15:07:17.085Z,100.00
2023-05-12T15:09:45.302Z,100.00
2023-05-12T15:12:12.606Z,100.00
2023-05-12T15:14:40.239Z,100.00
2023-05-12T15:17:08.070Z,100.00
2023-05-12T15:19:35.691Z,100.00
2023-05-12T15:22:03.049Z,100.00
2023-05-12T15:24:30.752Z,100.00
2023-05-12T15:26:58.044Z,100.00
2023-05-12T15:29:25.980Z,100.00
2023-05-12T15:31:53.404Z,100.00
2023-05-12T15:34:21.109Z,100.00
2023-05-12T15:36:49.023Z,100.00
2023-05-12T15:39:17.129Z,100.00
2023-05-12T15:41:44.473Z,100.00
2023-05-12T15:44:12.419Z,100.00
2023-05-12T15:46:39.813Z,100.00
2023-05-12T15:49:07.529Z,100.00
2023-05-12T15:51:36.620Z,100.00
2023-05-12T15:54:06.379Z,100.00
2023-05-12T15:56:34.539Z,100.00
2023-05-12T15:59:02.253Z,100.00
2023-05-12T16:01:29.647Z,100.00
2023-05-12T16:04:00.137Z,100.00
2023-05-12T16:06:27.702Z,100.00
2023-05-12T16:08:55.490Z,100.00
2023-05-12T16:11:22.768Z,100.00
2023-05-12T16:13:52.893Z,100.00
2023-05-12T16:16:20.447Z,100.00
2023-05-12T16:18:48.143Z,100.00
2023-05-12T16:21:15.743Z,100.00
2023-05-12T16:23:44.749Z,100.00
2023-05-12T16:26:12.178Z,100.00
2023-05-12T16:28:39.826Z,100.00
2023-05-12T16:31:07.193Z,100.00
2023-05-12T16:33:34.931Z,100.00
2023-05-12T16:36:02.354Z,100.00
2023-05-12T16:38:32.532Z,100.00
2023-05-12T16:41:00.796Z,100.00
2023-05-12T16:43:28.446Z,100.00
2023-05-12T16:46:03.279Z,100.00
2023-05-12T16:48:34.512Z,100.00
2023-05-12T16:51:07.783Z,100.00
2023-05-12T16:53:36.305Z,100.00
2023-05-12T16:56:03.825Z,100.00
2023-05-12T16:58:31.676Z,100.00
2023-05-12T17:01:00.237Z,100.00
2023-05-12T17:03:29.256Z,100.00
2023-05-12T17:05:56.851Z,100.00
2023-05-12T17:08:25.155Z,100.00
2023-05-12T17:10:52.496Z,100.00
2023-05-12T17:13:20.172Z,100.00
2023-05-12T17:15:47.738Z,100.00
2023-05-12T17:18:15.542Z,100.00
2023-05-12T17:20:43.318Z,100.00
2023-05-12T17:23:12.921Z,100.00
2023-05-12T17:25:40.304Z,100.00
2023-05-12T17:28:07.970Z,100.00
2023-05-12T17:30:35.307Z,100.00
2023-05-12T17:33:03.096Z,100.00
2023-05-12T17:35:30.520Z,100.00
2023-05-12T17:37:58.686Z,100.00
2023-05-12T17:40:26.663Z,100.00
2023-05-12T17:42:54.414Z,100.00
2023-05-12T17:45:21.976Z,100.00
2023-05-12T17:47:50.716Z,100.00
2023-05-12T17:50:18.437Z,100.00
2023-05-12T17:52:46.048Z,100.00
2023-05-12T17:55:13.320Z,100.00
2023-05-12T17:57:41.029Z,100.00
2023-05-12T18:00:13.005Z,100.00
2023-05-12T18:02:45.137Z,100.00
2023-05-12T18:05:12.702Z,100.00
2023-05-12T18:07:40.364Z,100.00
2023-05-12T18:10:11.635Z,100.00
2023-05-12T18:12:39.570Z,100.00
2023-05-12T18:15:08.313Z,100.00
2023-05-12T18:17:36.204Z,100.00
2023-05-12T18:20:07.668Z,100.00
2023-05-12T18:22:35.937Z,100.00
2023-05-12T18:25:03.271Z,100.00
2023-05-12T18:27:31.194Z,100.00
2023-05-12T18:29:58.523Z,100.00
2023-05-12T18:32:27.978Z,100.00
2023-05-12T18:34:55.274Z,100.00
2023-05-12T18:37:23.140Z,100.00
2023-05-12T18:39:50.598Z,100.00
2023-05-12T18:42:18.452Z,100.00
2023-05-12T18:44:46.048Z,100.00
2023-05-12T18:47:13.657Z,100.00
2023-05-12T18:49:40.926Z,100.00
2023-05-12T18:52:08.901Z,100.00
2023-05-12T18:54:37.985Z,100.00
2023-05-12T18:57:05.911Z,100.00
2023-05-12T18:59:33.265Z,100.00
2023-05-12T19:02:01.591Z,100.00
2023-05-12T19:04:29.359Z,100.00
2023-05-12T19:06:57.020Z,100.00
2023-05-12T19:09:24.254Z,100.00
2023-05-12T19:11:51.994Z,100.00
2023-05-12T19:14:20.453Z,100.00
2023-05-12T19:16:48.521Z,100.00
2023-05-12T19:19:16.089Z,100.00
2023-05-12T19:21:44.295Z,100.00
2023-05-12T19:24:11.922Z,100.00
2023-05-12T19:26:39.540Z,100.00
2023-05-12T19:29:07.369Z,100.00
2023-05-12T19:31:36.267Z,100.00
2023-05-12T19:34:04.016Z,100.00
2023-05-12T19:36:31.885Z,100.00
2023-05-12T19:39:02.045Z,100.00
2023-05-12T19:41:29.971Z,100.00
2023-05-12T19:43:57.375Z,100.00
2023-05-12T19:46:25.222Z,100.00
2023-05-12T19:48:54.840Z,100.00
2023-05-12T19:51:22.469Z,100.00
2023-05-12T19:53:49.766Z,100.00
2023-05-12T19:56:18.882Z,100.00
2023-05-12T19:58:46.268Z,100.00
2023-05-12T20:01:14.578Z,100.00
2023-05-12T20:03:44.237Z,100.00
2023-05-12T20:06:12.098Z,100.00
2023-05-12T20:08:39.375Z,100.00
2023-05-12T20:11:07.425Z,100.00
2023-05-12T20:13:35.003Z,100.00
2023-05-12T20:16:02.818Z,100.00
2023-05-12T20:18:30.101Z,100.00
2023-05-12T20:20:57.872Z,100.00
2023-05-12T20:23:25.384Z,100.00
2023-05-12T20:25:53.502Z,100.00
2023-05-12T20:28:22.618Z,100.00
2023-05-12T20:30:50.695Z,100.00
2023-05-12T20:33:18.021Z,100.00
2023-05-12T20:35:45.848Z,100.00
2023-05-12T20:38:13.629Z,100.00
2023-05-12T20:40:41.495Z,100.00
2023-05-12T20:43:08.949Z,100.00
2023-05-12T20:45:37.784Z,100.00
2023-05-12T20:48:05.333Z,100.00
2023-05-12T20:50:33.082Z,100.00
2023-05-12T20:53:00.379Z,100.00
2023-05-12T20:55:27.977Z,100.00
2023-05-12T20:57:55.491Z,100.00
2023-05-12T21:00:23.276Z,100.00
2023-05-12T21:02:52.502Z,100.00
2023-05-12T21:05:21.119Z,100.00
2023-05-12T21:07:48.983Z,100.00
2023-05-12T21:10:16.580Z,100.00
2023-05-12T21:12:44.442Z,100.00
2023-05-12T21:15:12.097Z,100.00
2023-05-12T21:17:40.214Z,100.00
2023-05-12T21:20:10.118Z,100.00
2023-05-12T21:22:38.601Z,100.00
2023-05-12T21:25:07.416Z,100.00
2023-05-12T21:27:39.733Z,100.00
2023-05-12T21:30:10.927Z,100.00
2023-05-12T21:32:38.594Z,100.00
2023-05-12T21:35:07.500Z,100.00
2023-05-12T21:37:34.907Z,100.00
2023-05-12T21:40:02.658Z,100.00
2023-05-12T21:42:36.035Z,100.00
2023-05-12T21:45:04.099Z,100.00
2023-05-12T21:47:31.533Z,100.00
2023-05-12T21:49:59.359Z,100.00
2023-05-12T21:52:26.805Z,100.00
2023-05-12T21:54:54.468Z,100.00
2023-05-12T21:57:21.792Z,100.00
2023-05-12T21:59:49.753Z,100.00
2023-05-12T22:02:17.281Z,100.00
2023-05-12T22:04:45.130Z,100.00
2023-05-12T22:07:12.698Z,100.00
2023-05-12T22:09:40.387Z,100.00
2023-05-12T22:12:08.871Z,100.00
2023-05-12T22:14:37.113Z,100.00
2023-05-12T22:17:04.650Z,100.00
2023-05-12T22:19:32.382Z,100.00
2023-05-12T22:22:00.071Z,100.00
2023-05-12T22:24:28.003Z,100.00
2023-05-12T22:26:55.389Z,100.00
2023-05-12T22:29:23.114Z,100.00
2023-05-12T22:31:50.877Z,100.00
2023-05-12T22:34:18.562Z,100.00
2023-05-12T22:36:46.061Z,100.00
2023-05-12T22:39:14.676Z,100.00
2023-05-12T22:41:42.208Z,100.00
2023-05-12T22:44:11.950Z,100.00
2023-05-12T22:46:39.322Z,100.00
2023-05-12T22:49:06.938Z,100.00
2023-05-12T22:51:34.466Z,100.00
2023-05-12T22:54:02.068Z,100.00
2023-05-12T22:56:29.348Z,100.00
2023-05-12T22:58:56.953Z,100.00
2023-05-12T23:01:24.703Z,100.00
2023-05-12T23:03:52.782Z,100.00
2023-05-12T23:06:20.126Z,100.00
2023-05-12T23:08:48.021Z,100.00
2023-05-12T23:11:16.269Z,100.00
2023-05-12T23:13:44.017Z,100.00
2023-05-12T23:16:11.338Z,100.00
2023-05-12T23:18:38.991Z,100.00
2023-05-12T23:21:06.536Z,100.00
2023-05-12T23:23:34.454Z,100.00
2023-05-12T23:26:01.672Z,100.00
2023-05-12T23:28:29.268Z,100.00
2023-05-12T23:30:56.528Z,100.00
2023-05-12T23:33:24.405Z,100.00
2023-05-12T23:35:51.726Z,100.00
2023-05-12T23:38:19.330Z,100.00
2023-05-12T23:40:46.610Z,100.00
2023-05-12T23:43:14.501Z,100.00
2023-05-12T23:45:42.228Z,100.00
2023-05-12T23:48:09.873Z,100.00
2023-05-12T23:50:37.168Z,100.00
2023-05-12T23:53:04.763Z,100.00
2023-05-12T23:55:32.157Z,100.00
2023-05-12T23:58:00.698Z,100.00
